This is the latest recevied weather packets stored in our database for station/object W5HKR. If no packets are shown the sender has not sent any weather packets the latest 10 day(s).
| Time | Temp. | Humidity | Pressure | Rain* | Wind** | Luminosity | Snow |
|---|---|---|---|---|---|---|---|
| 1778002438 | 26.67° C | 77% | 980.7 hPa | 0 mm | - | - | - |
| 1778002406 | 26.67° C | 76% | 981 hPa | 0 mm | - | - | - |
| 1778002106 | 18.33° C | 91% | 990.6 hPa | 0 mm | - | - | - |
| 1778001806 | 26.11° C | 78% | 980.4 hPa | 0 mm | - | - | - |
| 1778001510 | 18.33° C | 91% | 990.6 hPa | 0 mm | - | - | - |
| 1778001357 | 26.11° C | 78% | 980.8 hPa | 0 mm | - | - | - |
| 1778001205 | 18.33° C | 91% | 990.6 hPa | 0 mm | - | - | - |
| 1778000907 | 18.33° C | 91% | 990.6 hPa | 0 mm | - | - | - |
| 1778000607 | 25.56° C | 80% | 981.1 hPa | 0 mm | - | - | - |
| 1778000277 | 18.33° C | 91% | 990.6 hPa | 0 mm | - | - | - |
| 1778000007 | 18.33° C | 91% | 990.6 hPa | 0 mm | - | - | - |
| 1777999707 | 18.33° C | 91% | 990.6 hPa | 0 mm | - | - | - |
| 1777999407 | 18.33° C | 91% | 990.6 hPa | 0 mm | - | - | - |
| 1777999197 | 18.33° C | 91% | 990.6 hPa | 0 mm | - | - | - |
| 1777998806 | 24.44° C | 84% | 980.7 hPa | 0 mm | - | - | - |
| 1777998506 | 18.33° C | 91% | 990.6 hPa | 0 mm | - | - | - |
| 1777998205 | 23.89° C | 85% | 980.9 hPa | 0 mm | - | - | - |
| 1777998117 | 18.33° C | 91% | 990.6 hPa | 0 mm | - | - | - |
| 1777997906 | 18.33° C | 91% | 990.6 hPa | 0 mm | - | - | - |
| 1777997607 | 23.89° C | 86% | 980.8 hPa | 0 mm | - | - | - |
| 1777997307 | 18.33° C | 91% | 990.6 hPa | 0 mm | - | - | - |
| 1777997038 | 23.33° C | 87% | 980.8 hPa | 0 mm | - | - | - |
| 1777997007 | 23.33° C | 86% | 981 hPa | 0 mm | - | - | - |
| 1777996706 | 18.33° C | 91% | 990.6 hPa | 0 mm | - | - | - |
| 1777996406 | 18.33° C | 91% | 990.6 hPa | 0 mm | - | - | - |
* Rain latest hour (hover to see other rain measurements)
** Current wind speed in m/s (hover to see current wind gust speed)